Huvudsida
METAR-TAF:

METAR-TAF

Flygplatser :

Luleå Airport

Luleå, Sverige

latitud: 65-33N, longitud: 022-08E, höjd: 17 m

Aktuellt väderrapport

Denna rapport gjordes för 43 minuter sedan, klockan 09:20 UTC
Vind 10 kt från syd
Temperatur -1°C
Fuktighet 93%
Tryck 1005 hPa
Sikt 10 km eller mer
Mulet på en höjd av 600 ft

METAR: ESPA 200920Z 19010KT 9999 OVC006 M01/M02 Q1005

Tid: 11:03 (10:03 UTC)

Väderprognos

Denna rapport gjordes för 1 timme och 3 minuter sedan, klockan 09:00 UTC
Prognos gäller från 20 kl. 09 UTC till 20 kl. 18 UTC
Vind 10 kt från syd
Sikt 10 km eller mer
Brutna moln på en höjd av 600 ft
lätt snö
Temporärt
från 20 kl. 09 UTC till 20 kl. 13 UTC
Sikt: 2000 m
på en höjd av 1200 ft
snö
Blir
från 20 kl. 13 UTC till 20 kl. 15 UTC
Sikt 10 km eller mer
Inga moln under 1 500 m eller inga cumulonimbus

TAF: ESPA 200900Z 2009/2018 18010KT 9999 -SN BKN006 TEMPO 2009/2013 2000 SN VV012 BECMG 2013/2015 CAVOK RMK MIL

Aktuella väderrapporter och prognoser från 4000 flygplatser (METAR- och TAF-rapporter).

De tillgängliga stationerna syns som gula och röda prickar på kartan.

För musen över prickarna för att se namnen på stationerna.

Klicka sedan för att få väderrapporter och prognoser.

För att ändra kartan: Klicka på de gröna knapparna med ett svart kors på för att zooma in; den gröna knappen med ett streck på för att zooma ut; eller på de gröna pilarna för angränsande kartor.


METAR-TAF: